createdAt,value
2022-12-17T00:02:28.060Z,-1.94
2022-12-17T00:05:13.239Z,-1.99
2022-12-17T00:07:58.286Z,-2.04
2022-12-17T00:10:43.042Z,-2.01
2022-12-17T00:13:38.344Z,-1.99
2022-12-17T00:16:23.747Z,-1.94
2022-12-17T00:19:09.026Z,-1.93
2022-12-17T00:21:54.745Z,-2.04
2022-12-17T00:24:41.279Z,-2.01
2022-12-17T00:27:26.387Z,-1.98
2022-12-17T00:30:11.335Z,-1.95
2022-12-17T00:32:56.120Z,-2.10
2022-12-17T00:35:41.396Z,-2.06
2022-12-17T00:38:26.145Z,-2.03
2022-12-17T00:41:11.734Z,-1.94
2022-12-17T00:43:56.687Z,-1.96
2022-12-17T00:46:41.755Z,-1.98
2022-12-17T00:49:26.826Z,-1.97
2022-12-17T00:52:11.662Z,-1.97
2022-12-17T00:54:56.456Z,-1.94
2022-12-17T00:57:41.573Z,-1.90
2022-12-17T01:00:27.706Z,-2.06
2022-12-17T01:03:12.586Z,-2.16
2022-12-17T01:05:57.697Z,-2.11
2022-12-17T01:08:42.725Z,-2.06
2022-12-17T01:11:27.973Z,-2.01
2022-12-17T01:14:12.678Z,-1.99
2022-12-17T01:16:57.487Z,-2.09
2022-12-17T01:19:42.274Z,-2.04
2022-12-17T01:22:26.917Z,-2.00
2022-12-17T01:25:11.684Z,-1.95
2022-12-17T01:27:56.493Z,-2.07
2022-12-17T01:30:41.581Z,-2.09
2022-12-17T01:33:26.592Z,-2.02
2022-12-17T01:36:15.706Z,-1.97
2022-12-17T01:39:00.738Z,-1.95
2022-12-17T01:41:45.707Z,-1.94
2022-12-17T01:44:55.777Z,-1.92
2022-12-17T01:47:40.765Z,-1.94
2022-12-17T01:50:25.761Z,-1.95
2022-12-17T01:53:10.908Z,-1.91
2022-12-17T01:55:56.014Z,-1.99
2022-12-17T01:58:41.069Z,-1.97
2022-12-17T02:01:26.086Z,-2.00
2022-12-17T02:04:11.118Z,-2.00
2022-12-17T02:06:56.116Z,-1.99
2022-12-17T02:09:48.303Z,-1.98
2022-12-17T02:13:01.530Z,-1.94
2022-12-17T02:16:17.385Z,-1.93
2022-12-17T02:19:08.060Z,-1.92
2022-12-17T02:21:53.016Z,-1.92
2022-12-17T02:25:16.343Z,-1.92
2022-12-17T02:28:01.100Z,-1.92
2022-12-17T02:30:46.065Z,-1.98
2022-12-17T02:33:31.247Z,-1.96
2022-12-17T02:36:18.239Z,-1.96
2022-12-17T02:39:03.259Z,-1.95
2022-12-17T02:41:49.791Z,-1.95
2022-12-17T02:44:35.896Z,-1.95
2022-12-17T02:47:22.361Z,-1.95
2022-12-17T02:50:07.346Z,-1.96
2022-12-17T02:52:52.669Z,-2.08
2022-12-17T02:55:37.720Z,-2.06
2022-12-17T02:58:22.461Z,-2.06
2022-12-17T03:01:07.476Z,-2.11
2022-12-17T03:03:52.683Z,-2.15
2022-12-17T03:06:37.522Z,-2.15
2022-12-17T03:09:22.592Z,-2.10
2022-12-17T03:12:07.539Z,-2.10
2022-12-17T03:14:52.577Z,-2.09
2022-12-17T03:17:37.583Z,-2.07
2022-12-17T03:20:23.701Z,-2.06
2022-12-17T03:23:25.241Z,-2.07
2022-12-17T03:26:10.259Z,-2.08
2022-12-17T03:28:55.250Z,-2.08
2022-12-17T03:31:40.260Z,-2.09
2022-12-17T03:34:25.209Z,-2.09
2022-12-17T03:37:10.099Z,-2.07
2022-12-17T03:39:55.090Z,-2.06
2022-12-17T03:42:39.771Z,-2.05
2022-12-17T03:45:25.066Z,-2.04
2022-12-17T03:48:10.262Z,-2.05
2022-12-17T03:50:55.158Z,-2.07
2022-12-17T03:53:40.124Z,-2.06
2022-12-17T03:56:24.804Z,-2.01
2022-12-17T03:59:09.606Z,-1.99
2022-12-17T04:01:54.531Z,-1.98
2022-12-17T04:04:39.633Z,-2.04
2022-12-17T04:07:24.344Z,-2.10
2022-12-17T04:10:09.099Z,-2.07
2022-12-17T04:12:54.188Z,-2.10
2022-12-17T04:15:39.167Z,-2.19
2022-12-17T04:18:24.278Z,-2.18
2022-12-17T04:21:08.950Z,-2.13
2022-12-17T04:23:54.036Z,-2.10
2022-12-17T04:26:38.708Z,-2.06
2022-12-17T04:29:23.512Z,-2.04
2022-12-17T04:32:08.405Z,-2.03
2022-12-17T04:34:53.338Z,-2.14
2022-12-17T04:37:38.235Z,-2.14
2022-12-17T04:40:23.658Z,-2.09
2022-12-17T04:43:08.642Z,-2.09
2022-12-17T04:45:53.401Z,-2.09
2022-12-17T04:48:41.572Z,-2.05
2022-12-17T04:51:26.411Z,-2.02
2022-12-17T04:54:11.485Z,-1.99
2022-12-17T04:56:56.224Z,-1.97
2022-12-17T04:59:40.852Z,-1.99
2022-12-17T05:02:25.703Z,-1.99
2022-12-17T05:05:10.684Z,-1.99
2022-12-17T05:07:55.379Z,-2.02
2022-12-17T05:10:40.401Z,-2.01
2022-12-17T05:13:25.190Z,-2.02
2022-12-17T05:16:14.472Z,-2.01
2022-12-17T05:18:59.596Z,-2.01
2022-12-17T05:21:44.613Z,-1.99
2022-12-17T05:24:29.587Z,-2.01
2022-12-17T05:27:14.367Z,-2.02
2022-12-17T05:29:59.560Z,-2.04
2022-12-17T05:32:44.300Z,-2.06
2022-12-17T05:35:29.205Z,-2.07
2022-12-17T05:38:14.168Z,-2.09
2022-12-17T05:40:59.202Z,-2.07
2022-12-17T05:43:44.138Z,-2.06
2022-12-17T05:46:29.397Z,-2.06
2022-12-17T05:49:14.574Z,-2.08
2022-12-17T05:51:59.326Z,-2.11
2022-12-17T05:54:44.134Z,-2.11
2022-12-17T05:57:29.115Z,-2.09
2022-12-17T06:00:14.216Z,-2.09
2022-12-17T06:02:59.264Z,-2.08
2022-12-17T06:05:44.460Z,-2.10
2022-12-17T06:08:29.588Z,-2.10
2022-12-17T06:11:17.347Z,-2.08
2022-12-17T06:14:02.550Z,-2.07
2022-12-17T06:16:47.871Z,-2.10
2022-12-17T06:19:32.897Z,-2.09
2022-12-17T06:22:17.633Z,-2.00
2022-12-17T06:25:02.349Z,-1.94
2022-12-17T06:27:47.197Z,-1.87
2022-12-17T06:30:31.963Z,-1.84
2022-12-17T06:33:27.353Z,-1.86
2022-12-17T06:36:19.717Z,-1.88
2022-12-17T06:39:06.829Z,-1.94
2022-12-17T06:41:52.031Z,-1.94
2022-12-17T06:44:37.187Z,-1.97
2022-12-17T06:47:21.864Z,-1.98
2022-12-17T06:50:06.573Z,-1.98
2022-12-17T06:52:51.438Z,-1.98
2022-12-17T06:55:36.224Z,-1.95
2022-12-17T06:58:21.276Z,-1.91
2022-12-17T07:01:06.397Z,-1.83
2022-12-17T07:03:51.382Z,-1.84
2022-12-17T07:06:36.631Z,-1.84
2022-12-17T07:09:21.331Z,-1.87
2022-12-17T07:12:06.067Z,-1.88
2022-12-17T07:14:50.946Z,-1.90
2022-12-17T07:17:52.418Z,-1.93
2022-12-17T07:20:37.458Z,-1.96
2022-12-17T07:23:22.187Z,-1.98
2022-12-17T07:26:07.111Z,-1.98
2022-12-17T07:28:52.061Z,-1.99
2022-12-17T07:31:37.274Z,-1.98
2022-12-17T07:34:22.007Z,-1.97
2022-12-17T07:37:06.855Z,-1.97
2022-12-17T07:39:51.547Z,-1.97
2022-12-17T07:42:36.481Z,-1.98
2022-12-17T07:45:21.449Z,-1.97
2022-12-17T07:48:13.082Z,-1.92
2022-12-17T07:50:57.841Z,-1.88
2022-12-17T07:53:43.004Z,-1.82
2022-12-17T07:56:27.865Z,-1.82
2022-12-17T07:59:12.753Z,-1.79
2022-12-17T08:01:57.590Z,-1.79
2022-12-17T08:04:42.817Z,-1.77
2022-12-17T08:07:27.781Z,-1.76
2022-12-17T08:10:12.696Z,-1.73
2022-12-17T08:12:57.591Z,-1.74
2022-12-17T08:15:42.274Z,-1.72
2022-12-17T08:18:27.151Z,-1.68
2022-12-17T08:21:12.274Z,-1.65
2022-12-17T08:23:57.326Z,-1.70
2022-12-17T08:26:47.542Z,-1.70
2022-12-17T08:29:33.195Z,-1.72
2022-12-17T08:32:18.325Z,-1.67
2022-12-17T08:35:03.075Z,-1.57
2022-12-17T08:37:48.980Z,-1.50
2022-12-17T08:40:33.707Z,-1.44
2022-12-17T08:43:18.626Z,-1.43
2022-12-17T08:46:07.130Z,-1.35
2022-12-17T08:48:52.168Z,-1.32
2022-12-17T08:51:37.198Z,-1.26
2022-12-17T08:54:22.501Z,-1.19
2022-12-17T08:57:07.541Z,-1.18
2022-12-17T08:59:52.500Z,-1.15
2022-12-17T09:02:37.560Z,-1.13
2022-12-17T09:05:36.415Z,-1.17
2022-12-17T09:08:22.851Z,-1.09
2022-12-17T09:11:08.056Z,-1.04
2022-12-17T09:13:52.917Z,-1.01
2022-12-17T09:16:38.510Z,-0.99
2022-12-17T09:19:24.176Z,-1.01
2022-12-17T09:22:08.858Z,-0.96
2022-12-17T09:24:54.107Z,-0.96
2022-12-17T09:27:39.074Z,-0.90
2022-12-17T09:30:24.268Z,-0.87
2022-12-17T09:33:09.317Z,-0.83
2022-12-17T09:35:56.973Z,-0.83
2022-12-17T09:38:41.709Z,-0.88
2022-12-17T09:41:44.855Z,-0.85
2022-12-17T09:44:40.224Z,-0.82
2022-12-17T09:47:58.665Z,-0.83
2022-12-17T09:50:43.748Z,-0.81
2022-12-17T09:53:55.553Z,-0.77
2022-12-17T09:56:42.139Z,-0.78
2022-12-17T09:59:33.869Z,-0.75
2022-12-17T10:02:21.563Z,-0.69
2022-12-17T10:05:06.804Z,-0.63
2022-12-17T10:07:54.458Z,-0.61
2022-12-17T10:11:04.442Z,-0.61
2022-12-17T10:13:49.718Z,-0.59
2022-12-17T10:16:43.725Z,-0.55
2022-12-17T10:19:47.611Z,-0.52
2022-12-17T10:22:33.532Z,-0.49
2022-12-17T10:25:24.162Z,-0.44
2022-12-17T10:28:09.101Z,-0.40
2022-12-17T10:30:54.685Z,-0.39
2022-12-17T10:33:39.892Z,-0.37
2022-12-17T10:36:39.204Z,-0.31
2022-12-17T10:39:24.801Z,-0.30
2022-12-17T10:42:09.851Z,-0.27
2022-12-17T10:44:56.213Z,-0.28
2022-12-17T10:47:42.339Z,-0.24
2022-12-17T10:50:40.806Z,-0.24
2022-12-17T10:53:37.870Z,-0.22
2022-12-17T10:56:23.471Z,-0.19
2022-12-17T10:59:10.598Z,-0.13
2022-12-17T11:01:56.129Z,-0.15
2022-12-17T11:04:45.265Z,-0.07
2022-12-17T11:07:34.123Z,-0.06
2022-12-17T11:10:19.689Z,-0.02
2022-12-17T11:13:14.886Z,-0.01
2022-12-17T11:16:09.257Z,0.00
2022-12-17T11:19:17.219Z,0.04
2022-12-17T11:22:03.985Z,0.01
2022-12-17T11:25:00.660Z,0.12
2022-12-17T11:27:47.898Z,0.18
2022-12-17T11:30:33.848Z,0.13
2022-12-17T11:33:55.744Z,0.21
2022-12-17T11:36:42.914Z,0.25
2022-12-17T11:39:44.239Z,0.31
2022-12-17T11:42:37.317Z,0.32
2022-12-17T11:45:24.801Z,0.37
2022-12-17T11:48:16.248Z,0.35
2022-12-17T11:51:09.536Z,0.40
2022-12-17T11:54:13.425Z,0.41
2022-12-17T11:57:06.287Z,0.38
2022-12-17T11:59:56.134Z,0.47
2022-12-17T12:02:56.918Z,0.47
2022-12-17T12:06:08.745Z,0.52
2022-12-17T12:09:26.684Z,0.52
2022-12-17T12:12:14.590Z,0.53
2022-12-17T12:15:21.082Z,0.50
2022-12-17T12:18:50.431Z,0.57
2022-12-17T12:21:45.400Z,0.61
2022-12-17T12:24:40.109Z,0.65
2022-12-17T12:27:42.437Z,0.73
2022-12-17T12:30:39.408Z,0.75
2022-12-17T12:33:39.714Z,0.73
2022-12-17T12:36:25.585Z,0.73
2022-12-17T12:39:12.676Z,0.77
2022-12-17T12:42:07.400Z,0.82
2022-12-17T12:45:01.587Z,0.87
2022-12-17T12:47:59.053Z,0.91
2022-12-17T12:51:02.910Z,0.89
2022-12-17T12:53:47.661Z,0.88
2022-12-17T12:56:52.320Z,0.87
2022-12-17T12:59:55.429Z,0.93
2022-12-17T13:02:43.415Z,0.96
2022-12-17T13:05:34.412Z,0.95
2022-12-17T13:08:22.214Z,0.93
2022-12-17T13:10:49.149Z,0.93
2022-12-17T13:13:15.495Z,1.00
2022-12-17T13:15:46.993Z,1.01
2022-12-17T13:18:33.322Z,1.04
2022-12-17T13:21:14.932Z,1.04
2022-12-17T13:23:41.406Z,1.06
2022-12-17T13:26:18.357Z,1.07
2022-12-17T13:28:50.129Z,1.06
2022-12-17T13:31:21.859Z,0.96
2022-12-17T13:34:23.465Z,0.80
2022-12-17T13:37:10.839Z,0.74
2022-12-17T13:39:54.948Z,0.81
2022-12-17T13:42:29.460Z,0.66
2022-12-17T13:44:56.030Z,0.60
2022-12-17T13:47:27.829Z,0.53
2022-12-17T13:50:31.811Z,0.43
2022-12-17T13:52:42.441Z,0.35
2022-12-17T13:55:10.744Z,0.28
2022-12-17T13:57:37.406Z,0.19
2022-12-17T14:00:04.349Z,0.06
2022-12-17T14:02:32.559Z,0.08
2022-12-17T14:05:04.197Z,0.10
2022-12-17T14:07:34.763Z,0.16
2022-12-17T14:10:02.373Z,0.08
2022-12-17T14:12:29.953Z,-0.05
2022-12-17T14:14:57.752Z,-0.16
2022-12-17T14:17:28.692Z,-0.26
2022-12-17T14:19:59.204Z,-0.34
2022-12-17T14:22:36.421Z,-0.43
2022-12-17T14:25:03.425Z,-0.52
2022-12-17T14:27:34.548Z,-0.60
2022-12-17T14:30:01.481Z,-0.66
2022-12-17T14:32:36.009Z,-0.73
2022-12-17T14:35:02.856Z,-0.79
2022-12-17T14:37:29.378Z,-0.82
2022-12-17T14:40:00.560Z,-0.86
2022-12-17T14:42:29.152Z,-0.91
2022-12-17T14:44:56.838Z,-0.95
2022-12-17T14:47:30.958Z,-1.02
2022-12-17T14:50:12.592Z,-1.09
2022-12-17T14:52:41.640Z,-1.15
2022-12-17T14:55:34.233Z,-1.21
2022-12-17T14:58:12.759Z,-1.26
2022-12-17T15:01:14.760Z,-1.35
2022-12-17T15:03:43.044Z,-1.40
2022-12-17T15:06:10.589Z,-1.43
2022-12-17T15:08:42.769Z,-1.45
2022-12-17T15:11:11.796Z,-1.51
2022-12-17T15:13:38.189Z,-1.54
2022-12-17T15:16:05.030Z,-1.57
2022-12-17T15:18:31.427Z,-1.65
2022-12-17T15:20:57.755Z,-1.68
2022-12-17T15:23:24.365Z,-1.76
2022-12-17T15:25:51.746Z,-1.76
2022-12-17T15:28:18.824Z,-1.82
2022-12-17T15:30:45.568Z,-1.92
2022-12-17T15:33:12.042Z,-1.98
2022-12-17T15:35:38.691Z,-2.00
2022-12-17T15:38:05.458Z,-2.04
2022-12-17T15:40:31.883Z,-2.07
2022-12-17T15:43:13.781Z,-2.10
2022-12-17T15:45:41.704Z,-2.17
2022-12-17T15:48:08.735Z,-2.21
2022-12-17T15:50:35.268Z,-2.27
2022-12-17T15:53:01.665Z,-2.33
2022-12-17T15:55:28.362Z,-2.39
2022-12-17T15:57:54.733Z,-2.43
2022-12-17T16:00:21.219Z,-2.48
2022-12-17T16:02:48.822Z,-2.51
2022-12-17T16:05:15.359Z,-2.55
2022-12-17T16:07:43.392Z,-2.60
2022-12-17T16:10:11.027Z,-2.62
2022-12-17T16:12:37.428Z,-2.66
2022-12-17T16:15:04.149Z,-2.70
2022-12-17T16:17:30.509Z,-2.71
2022-12-17T16:19:56.880Z,-2.74
2022-12-17T16:22:23.241Z,-2.78
2022-12-17T16:24:49.680Z,-2.82
2022-12-17T16:27:18.083Z,-2.88
2022-12-17T16:29:45.575Z,-2.95
2022-12-17T16:32:11.941Z,-2.99
2022-12-17T16:34:38.288Z,-3.05
2022-12-17T16:37:06.706Z,-3.07
2022-12-17T16:39:33.229Z,-3.10
2022-12-17T16:41:59.595Z,-3.15
2022-12-17T16:44:25.973Z,-3.17
2022-12-17T16:46:52.377Z,-3.22
2022-12-17T16:49:20.546Z,-3.22
2022-12-17T16:51:52.309Z,-3.24
2022-12-17T16:54:20.494Z,-3.33
2022-12-17T16:56:47.017Z,-3.35
2022-12-17T16:59:14.113Z,-3.39
2022-12-17T17:01:41.218Z,-3.41
2022-12-17T17:04:08.557Z,-3.45
2022-12-17T17:06:42.255Z,-3.49
2022-12-17T17:09:08.789Z,-3.53
2022-12-17T17:11:35.142Z,-3.57
2022-12-17T17:14:01.551Z,-3.61
2022-12-17T17:16:28.018Z,-3.65
2022-12-17T17:18:54.557Z,-3.71
2022-12-17T17:21:24.447Z,-3.71
2022-12-17T17:24:01.770Z,-3.76
2022-12-17T17:26:29.363Z,-3.77
2022-12-17T17:28:56.046Z,-3.76
2022-12-17T17:31:26.633Z,-3.74
2022-12-17T17:33:57.116Z,-3.78
2022-12-17T17:36:25.280Z,-3.84
2022-12-17T17:38:52.503Z,-3.91
2022-12-17T17:41:20.200Z,-3.98
2022-12-17T17:43:46.707Z,-4.00
2022-12-17T17:46:15.142Z,-4.04
2022-12-17T17:48:43.553Z,-4.06
2022-12-17T17:51:18.104Z,-4.11
2022-12-17T17:53:48.857Z,-4.15
2022-12-17T17:56:17.170Z,-4.17
2022-12-17T17:58:53.832Z,-4.19
2022-12-17T18:01:24.957Z,-4.23
2022-12-17T18:03:51.946Z,-4.23
2022-12-17T18:06:18.405Z,-4.22
2022-12-17T18:08:44.952Z,-4.19
2022-12-17T18:11:12.243Z,-4.13
2022-12-17T18:13:56.924Z,-4.16
2022-12-17T18:16:40.527Z,-4.17
2022-12-17T18:19:15.093Z,-4.18
2022-12-17T18:21:41.715Z,-4.19
2022-12-17T18:24:11.456Z,-4.22
2022-12-17T18:26:39.491Z,-4.31
2022-12-17T18:29:09.451Z,-4.36
2022-12-17T18:31:35.851Z,-4.42
2022-12-17T18:34:02.741Z,-4.49
2022-12-17T18:36:30.992Z,-4.51
2022-12-17T18:38:58.344Z,-4.50
2022-12-17T18:41:43.505Z,-4.52
2022-12-17T18:44:09.957Z,-4.51
2022-12-17T18:46:36.550Z,-4.52
2022-12-17T18:49:06.931Z,-4.53
2022-12-17T18:51:34.532Z,-4.53
2022-12-17T18:54:01.981Z,-4.51
2022-12-17T18:56:59.314Z,-4.48
2022-12-17T18:59:15.803Z,-4.53
2022-12-17T19:01:42.465Z,-4.56
2022-12-17T19:04:10.090Z,-4.56
2022-12-17T19:06:37.230Z,-4.53
2022-12-17T19:09:03.989Z,-4.51
2022-12-17T19:11:36.887Z,-4.53
2022-12-17T19:14:05.528Z,-4.54
2022-12-17T19:16:32.014Z,-4.59
2022-12-17T19:19:00.219Z,-4.61
2022-12-17T19:21:26.817Z,-4.64
2022-12-17T19:24:03.950Z,-4.63
2022-12-17T19:26:30.869Z,-4.61
2022-12-17T19:28:57.994Z,-4.60
2022-12-17T19:31:26.308Z,-4.62
2022-12-17T19:34:00.216Z,-4.65
2022-12-17T19:36:28.585Z,-4.63
2022-12-17T19:38:56.486Z,-4.69
2022-12-17T19:41:23.185Z,-4.73
2022-12-17T19:43:54.489Z,-4.80
2022-12-17T19:46:20.945Z,-4.81
2022-12-17T19:48:48.877Z,-4.80
2022-12-17T19:51:16.520Z,-4.82
2022-12-17T19:53:43.459Z,-4.88
2022-12-17T19:56:19.718Z,-4.92
2022-12-17T19:58:47.648Z,-4.97
2022-12-17T20:01:16.564Z,-5.00
2022-12-17T20:03:44.251Z,-5.00
2022-12-17T20:06:11.400Z,-5.01
2022-12-17T20:08:38.070Z,-5.07
2022-12-17T20:11:26.391Z,-5.05
2022-12-17T20:13:59.624Z,-5.13
2022-12-17T20:16:26.767Z,-5.10
2022-12-17T20:18:53.224Z,-5.12
2022-12-17T20:21:19.720Z,-5.10
2022-12-17T20:23:49.569Z,-5.12
2022-12-17T20:26:16.402Z,-5.05
2022-12-17T20:28:42.892Z,-5.05
2022-12-17T20:31:09.358Z,-5.06
2022-12-17T20:33:35.793Z,-5.07
2022-12-17T20:36:05.572Z,-5.15
2022-12-17T20:38:32.093Z,-5.15
2022-12-17T20:40:58.456Z,-5.18
2022-12-17T20:43:25.056Z,-5.22
2022-12-17T20:45:51.882Z,-5.27
2022-12-17T20:48:18.311Z,-5.26
2022-12-17T20:50:44.952Z,-5.25
2022-12-17T20:53:11.460Z,-5.24
2022-12-17T20:55:37.809Z,-5.29
2022-12-17T20:58:04.214Z,-5.30
2022-12-17T21:00:30.575Z,-5.26
2022-12-17T21:02:57.131Z,-5.24
2022-12-17T21:05:23.919Z,-5.29
2022-12-17T21:07:50.970Z,-5.31
2022-12-17T21:10:17.440Z,-5.38
2022-12-17T21:13:02.295Z,-5.42
2022-12-17T21:15:28.672Z,-5.43
2022-12-17T21:17:55.033Z,-5.47
2022-12-17T21:20:21.711Z,-5.49
2022-12-17T21:22:48.281Z,-5.52
2022-12-17T21:25:14.633Z,-5.54
2022-12-17T21:27:40.984Z,-5.57
2022-12-17T21:30:10.435Z,-5.57
2022-12-17T21:32:39.916Z,-5.61
2022-12-17T21:35:06.757Z,-5.65
2022-12-17T21:37:33.179Z,-5.65
2022-12-17T21:40:00.051Z,-5.61
2022-12-17T21:42:45.002Z,-5.61
2022-12-17T21:45:11.341Z,-5.60
2022-12-17T21:47:37.824Z,-5.63
2022-12-17T21:50:04.504Z,-5.67
2022-12-17T21:52:30.865Z,-5.68
2022-12-17T21:54:57.212Z,-5.71
2022-12-17T21:57:23.597Z,-5.76
2022-12-17T21:59:50.195Z,-5.73
2022-12-17T22:02:18.132Z,-5.69
2022-12-17T22:04:44.877Z,-5.68
2022-12-17T22:07:16.271Z,-5.70
2022-12-17T22:10:16.900Z,-5.74
2022-12-17T22:13:02.543Z,-5.78
2022-12-17T22:15:34.301Z,-5.81
2022-12-17T22:18:08.714Z,-5.79
2022-12-17T22:20:35.144Z,-5.75
2022-12-17T22:23:04.732Z,-5.75
2022-12-17T22:25:31.282Z,-5.81
2022-12-17T22:27:57.632Z,-5.83
2022-12-17T22:30:42.655Z,-5.94
2022-12-17T22:33:21.394Z,-5.98
2022-12-17T22:36:51.675Z,-6.06
2022-12-17T22:42:39.972Z,-6.11
2022-12-17T22:44:41.584Z,-6.17
2022-12-17T22:44:53.070Z,-6.19
2022-12-17T22:47:21.183Z,-6.24
2022-12-17T22:49:47.553Z,-6.24
2022-12-17T22:52:13.994Z,-6.29
2022-12-17T22:54:41.886Z,-6.28
2022-12-17T22:57:35.158Z,-6.31
2022-12-17T22:59:57.790Z,-6.37
2022-12-17T23:02:24.311Z,-6.35
2022-12-17T23:04:50.748Z,-6.38
2022-12-17T23:07:17.138Z,-6.39
2022-12-17T23:09:43.556Z,-6.36
2022-12-17T23:12:28.241Z,-6.42
2022-12-17T23:14:54.632Z,-6.50
2022-12-17T23:17:20.992Z,-6.52
2022-12-17T23:19:47.346Z,-6.54
2022-12-17T23:22:22.031Z,-6.54
2022-12-17T23:24:48.785Z,-6.52
2022-12-17T23:27:15.306Z,-6.56
2022-12-17T23:29:41.718Z,-6.61
2022-12-17T23:32:08.082Z,-6.63
2022-12-17T23:34:34.684Z,-6.61
2022-12-17T23:37:01.063Z,-6.63
2022-12-17T23:39:27.472Z,-6.69
2022-12-17T23:41:54.400Z,-6.76
2022-12-17T23:44:20.779Z,-6.80
2022-12-17T23:46:47.137Z,-6.84
2022-12-17T23:49:14.919Z,-6.81
2022-12-17T23:51:41.280Z,-6.82
2022-12-17T23:54:07.614Z,-6.84
2022-12-17T23:56:33.971Z,-6.88
2022-12-17T23:59:01.059Z,-6.89
